createdAt,value
2019-02-02T00:00:47.916Z,22.83
2019-02-02T00:03:16.054Z,22.87
2019-02-02T00:05:45.791Z,22.81
2019-02-02T00:08:15.053Z,22.72
2019-02-02T00:10:45.391Z,22.72
2019-02-02T00:13:16.915Z,22.78
2019-02-02T00:15:46.740Z,22.71
2019-02-02T00:18:16.572Z,22.71
2019-02-02T00:21:00.581Z,22.77
2019-02-02T00:23:30.729Z,22.74
2019-02-02T00:25:59.895Z,22.74
2019-02-02T00:28:29.947Z,22.63
2019-02-02T00:31:00.637Z,22.45
2019-02-02T00:36:00.852Z,22.59
2019-02-02T00:38:29.646Z,22.59
2019-02-02T00:40:59.267Z,22.62
2019-02-02T00:43:29.781Z,22.64
2019-02-02T00:45:59.163Z,22.67
2019-02-02T00:48:28.925Z,22.67
2019-02-02T00:51:00.352Z,22.59
2019-02-02T00:53:30.340Z,22.65
2019-02-02T00:57:04.697Z,22.59
2019-02-02T00:59:34.229Z,22.59
2019-02-02T01:02:04.750Z,22.51
2019-02-02T01:04:33.741Z,22.51
2019-02-02T01:07:04.714Z,22.57
2019-02-02T01:09:33.821Z,22.59
2019-02-02T01:12:05.077Z,22.57
2019-02-02T01:17:20.758Z,22.54
2019-02-02T01:19:51.032Z,22.52
2019-02-02T01:22:21.558Z,22.37
2019-02-02T01:24:53.117Z,22.51
2019-02-02T01:27:21.066Z,22.51
2019-02-02T01:29:51.047Z,22.49
2019-02-02T01:32:21.297Z,22.44
2019-02-02T01:34:51.060Z,22.53
2019-02-02T01:37:20.355Z,22.60
2019-02-02T01:39:49.688Z,22.54
2019-02-02T01:42:18.711Z,22.50
2019-02-02T01:44:48.924Z,22.43
2019-02-02T01:47:20.156Z,22.51
2019-02-02T01:49:50.664Z,22.50
2019-02-02T01:52:18.889Z,22.50
2019-02-02T01:54:48.919Z,22.47
2019-02-02T01:57:19.358Z,22.35
2019-02-02T01:59:48.027Z,22.35
2019-02-02T02:02:16.062Z,22.45
2019-02-02T02:04:43.875Z,22.40
2019-02-02T02:07:13.045Z,22.33
2019-02-02T02:09:42.769Z,22.45
2019-02-02T02:12:12.577Z,22.45
2019-02-02T02:14:40.878Z,22.47
2019-02-02T02:17:09.791Z,22.45
2019-02-02T02:19:38.781Z,22.45
2019-02-02T02:22:09.039Z,22.40
2019-02-02T02:24:38.935Z,22.41
2019-02-02T02:27:07.646Z,22.34
2019-02-02T02:29:36.656Z,22.23
2019-02-02T02:32:05.805Z,22.23
2019-02-02T02:34:35.040Z,22.34
2019-02-02T02:37:04.146Z,22.33
2019-02-02T02:39:32.859Z,22.33
2019-02-02T02:42:01.705Z,22.30
2019-02-02T02:44:32.806Z,22.29
2019-02-02T02:47:03.965Z,22.24
2019-02-02T02:49:33.176Z,22.22
2019-02-02T02:52:02.579Z,22.25
2019-02-02T02:54:30.952Z,22.31
2019-02-02T02:57:00.714Z,22.31
2019-02-02T02:59:28.733Z,22.29
2019-02-02T03:01:58.360Z,22.20
2019-02-02T03:04:27.792Z,22.31
2019-02-02T03:06:57.228Z,22.31
2019-02-02T03:09:25.068Z,22.29
2019-02-02T03:11:53.044Z,22.25
2019-02-02T03:14:21.669Z,22.17
2019-02-02T03:16:50.341Z,22.30
2019-02-02T03:19:19.912Z,22.28
2019-02-02T03:21:49.034Z,22.19
2019-02-02T03:24:19.938Z,22.21
2019-02-02T03:26:48.818Z,22.20
2019-02-02T03:29:18.680Z,22.20
2019-02-02T03:31:48.762Z,22.26
2019-02-02T03:34:18.329Z,22.25
2019-02-02T03:36:47.806Z,22.28
2019-02-02T03:39:16.842Z,22.28
2019-02-02T03:41:45.126Z,22.16
2019-02-02T03:44:13.719Z,22.16
2019-02-02T03:46:42.903Z,22.16
2019-02-02T03:49:12.332Z,22.16
2019-02-02T03:51:41.722Z,22.25
2019-02-02T03:54:10.603Z,22.22
2019-02-02T03:56:39.817Z,22.22
2019-02-02T03:59:07.775Z,22.24
2019-02-02T04:01:36.896Z,22.24
2019-02-02T04:04:06.577Z,22.23
2019-02-02T04:06:35.029Z,22.22
2019-02-02T04:09:06.846Z,22.25
2019-02-02T04:11:36.661Z,22.25
2019-02-02T04:14:06.696Z,22.25
2019-02-02T04:16:35.462Z,22.22
2019-02-02T04:19:03.770Z,22.22
2019-02-02T04:21:32.063Z,22.23
2019-02-02T04:24:00.886Z,22.20
2019-02-02T04:26:29.655Z,22.14
2019-02-02T04:28:59.431Z,22.09
2019-02-02T04:31:29.126Z,22.09
2019-02-02T04:33:58.905Z,22.09
2019-02-02T04:36:28.705Z,22.21
2019-02-02T04:38:58.342Z,22.10
2019-02-02T04:41:27.952Z,22.14
2019-02-02T04:43:58.120Z,22.18
2019-02-02T04:46:26.946Z,22.18
2019-02-02T04:48:56.772Z,22.08
2019-02-02T04:51:24.954Z,22.08
2019-02-02T04:53:52.711Z,22.17
2019-02-02T04:56:22.720Z,22.17
2019-02-02T04:58:51.870Z,22.17
2019-02-02T05:01:20.745Z,22.11
2019-02-02T05:03:48.903Z,22.12
2019-02-02T05:06:19.632Z,22.12
2019-02-02T05:08:49.104Z,22.10
2019-02-02T05:11:17.981Z,22.10
2019-02-02T05:13:46.653Z,22.15
2019-02-02T05:16:14.734Z,22.15
2019-02-02T05:18:44.744Z,22.13
2019-02-02T05:21:14.677Z,22.13
2019-02-02T05:23:45.073Z,22.01
2019-02-02T05:26:14.742Z,22.10
2019-02-02T05:28:42.549Z,22.10
2019-02-02T05:31:11.696Z,22.11
2019-02-02T05:33:39.307Z,22.11
2019-02-02T05:36:07.672Z,22.14
2019-02-02T05:38:38.076Z,22.00
2019-02-02T05:41:06.064Z,22.00
2019-02-02T05:43:34.804Z,22.10
2019-02-02T05:46:05.065Z,22.10
2019-02-02T05:48:32.936Z,21.99
2019-02-02T05:51:02.328Z,21.99
2019-02-02T05:53:30.860Z,22.03
2019-02-02T05:56:00.747Z,22.03
2019-02-02T05:58:29.993Z,22.11
2019-02-02T06:00:58.009Z,22.06
2019-02-02T06:03:26.606Z,21.99
2019-02-02T06:05:56.798Z,21.98
2019-02-02T06:08:25.362Z,21.98
2019-02-02T06:10:53.626Z,22.11
2019-02-02T06:13:24.277Z,22.05
2019-02-02T06:15:54.197Z,22.05
2019-02-02T06:18:23.990Z,22.06
2019-02-02T06:23:37.982Z,22.08
2019-02-02T06:26:07.334Z,21.95
2019-02-02T06:28:38.602Z,21.95
2019-02-02T06:31:05.798Z,22.07
2019-02-02T06:33:35.721Z,22.10
2019-02-02T06:36:24.773Z,22.09
2019-02-02T06:38:54.625Z,21.99
2019-02-02T06:41:24.016Z,22.06
2019-02-02T06:43:54.144Z,22.04
2019-02-02T06:46:24.873Z,22.04
2019-02-02T06:48:54.731Z,22.00
2019-02-02T06:51:25.010Z,22.00
2019-02-02T06:53:57.131Z,21.99
2019-02-02T06:58:22.333Z,22.07
2019-02-02T07:00:51.575Z,22.02
2019-02-02T07:03:22.696Z,22.02
2019-02-02T07:05:53.803Z,22.09
2019-02-02T07:08:22.713Z,22.08
2019-02-02T07:10:52.744Z,22.08
2019-02-02T07:13:22.923Z,22.10
2019-02-02T07:15:53.070Z,22.09
2019-02-02T07:18:23.391Z,22.08
2019-02-02T07:20:53.005Z,22.11
2019-02-02T07:23:46.384Z,22.11
2019-02-02T07:26:14.685Z,22.07
2019-02-02T07:28:49.113Z,22.11
2019-02-02T07:31:18.619Z,22.08
2019-02-02T07:33:46.892Z,22.04
2019-02-02T07:36:18.957Z,22.08
2019-02-02T07:38:48.241Z,22.01
2019-02-02T07:41:46.282Z,22.01
2019-02-02T07:44:21.397Z,22.07
2019-02-02T07:46:51.905Z,22.07
2019-02-02T07:49:22.271Z,22.06
2019-02-02T07:51:52.820Z,22.06
2019-02-02T07:54:24.304Z,22.06
2019-02-02T07:56:54.091Z,21.93
2019-02-02T07:59:23.686Z,21.93
2019-02-02T08:01:54.807Z,21.94
2019-02-02T08:04:26.090Z,22.05
2019-02-02T08:06:55.762Z,21.89
2019-02-02T08:09:25.611Z,21.89
2019-02-02T08:11:54.854Z,22.09
2019-02-02T08:14:24.799Z,21.90
2019-02-02T08:17:24.959Z,21.90
2019-02-02T08:19:54.739Z,22.06
2019-02-02T08:22:25.460Z,22.01
2019-02-02T08:24:55.665Z,22.08
2019-02-02T08:27:26.301Z,22.07
2019-02-02T08:29:56.798Z,22.07
2019-02-02T08:32:30.984Z,21.94
2019-02-02T08:34:59.642Z,21.97
2019-02-02T08:37:28.634Z,21.97
2019-02-02T08:39:58.012Z,22.03
2019-02-02T08:42:27.082Z,21.89
2019-02-02T08:44:56.371Z,21.89
2019-02-02T08:47:25.644Z,21.98
2019-02-02T08:49:55.385Z,21.99
2019-02-02T08:52:24.477Z,21.99
2019-02-02T08:54:54.917Z,22.00
2019-02-02T08:57:24.050Z,22.03
2019-02-02T08:59:53.702Z,22.03
2019-02-02T09:03:05.643Z,22.00
2019-02-02T09:05:38.410Z,22.00
2019-02-02T09:08:07.983Z,21.88
2019-02-02T09:10:37.624Z,21.88
2019-02-02T09:13:08.700Z,21.88
2019-02-02T09:15:39.455Z,21.39
2019-02-02T09:18:21.374Z,21.13
2019-02-02T09:20:51.916Z,20.91
2019-02-02T09:23:21.096Z,20.91
2019-02-02T09:25:51.005Z,20.61
2019-02-02T09:28:20.716Z,20.67
2019-02-02T09:30:50.635Z,20.84
2019-02-02T09:33:21.683Z,20.84
2019-02-02T09:35:51.637Z,20.89
2019-02-02T09:38:22.787Z,20.95
2019-02-02T09:40:51.747Z,21.03
2019-02-02T09:43:20.993Z,21.12
2019-02-02T09:45:54.898Z,21.12
2019-02-02T09:48:24.948Z,21.36
2019-02-02T09:50:54.131Z,21.36
2019-02-02T09:53:25.446Z,21.36
2019-02-02T09:55:54.263Z,21.36
2019-02-02T09:58:23.733Z,21.35
2019-02-02T10:01:48.072Z,21.48
2019-02-02T10:04:17.871Z,21.56
2019-02-02T10:06:48.752Z,21.49
2019-02-02T10:10:44.643Z,21.56
2019-02-02T10:13:12.738Z,21.52
2019-02-02T10:15:40.610Z,21.53
2019-02-02T10:18:10.672Z,21.58
2019-02-02T10:20:39.861Z,21.58
2019-02-02T10:23:10.541Z,21.55
2019-02-02T10:25:39.782Z,21.55
2019-02-02T10:28:08.523Z,21.60
2019-02-02T10:30:39.617Z,21.60
2019-02-02T10:33:07.689Z,21.59
2019-02-02T10:47:54.672Z,21.73
2019-02-02T10:50:24.066Z,21.73
2019-02-02T10:52:54.034Z,21.74
2019-02-02T10:55:23.703Z,21.76
2019-02-02T10:57:52.769Z,21.76
2019-02-02T11:00:25.807Z,21.78
2019-02-02T11:02:54.400Z,21.80
2019-02-02T11:05:24.675Z,21.76
2019-02-02T11:07:56.517Z,21.75
2019-02-02T11:10:28.109Z,21.69
2019-02-02T11:12:57.926Z,21.24
2019-02-02T11:15:27.531Z,21.13
2019-02-02T11:17:57.297Z,21.13
2019-02-02T11:20:30.503Z,21.23
2019-02-02T11:22:59.780Z,21.43
2019-02-02T11:25:38.850Z,21.43
2019-02-02T11:28:07.932Z,21.59
2019-02-02T11:30:36.909Z,21.77
2019-02-02T11:33:08.896Z,21.64
2019-02-02T11:35:37.780Z,21.73
2019-02-02T11:38:09.771Z,21.79
2019-02-02T11:40:39.416Z,21.79
2019-02-02T11:43:09.290Z,21.92
2019-02-02T11:45:42.769Z,21.95
2019-02-02T11:48:11.680Z,21.95
2019-02-02T11:50:41.104Z,21.97
2019-02-02T11:53:13.706Z,21.81
2019-02-02T11:55:43.711Z,21.99
2019-02-02T11:58:13.364Z,21.95
2019-02-02T12:00:42.651Z,21.95
2019-02-02T12:03:13.411Z,22.00
2019-02-02T12:05:43.814Z,22.00
2019-02-02T12:08:14.601Z,22.03
2019-02-02T12:10:45.014Z,22.09
2019-02-02T12:13:14.304Z,22.10
2019-02-02T12:15:46.016Z,22.10
2019-02-02T12:18:14.844Z,22.18
2019-02-02T12:20:43.962Z,21.96
2019-02-02T12:23:12.813Z,21.96
2019-02-02T12:25:42.462Z,22.16
2019-02-02T12:29:48.578Z,22.22
2019-02-02T12:32:26.697Z,22.02
2019-02-02T12:34:51.433Z,22.11
2019-02-02T12:37:19.263Z,22.08
2019-02-02T12:39:46.897Z,22.00
2019-02-02T12:42:14.441Z,22.03
2019-02-02T12:44:42.680Z,22.05
2019-02-02T12:47:10.392Z,22.06
2019-02-02T12:49:38.852Z,22.09
2019-02-02T12:52:06.611Z,21.94
2019-02-02T12:54:35.492Z,21.94
2019-02-02T12:57:03.274Z,22.06
2019-02-02T12:59:31.462Z,22.08
2019-02-02T13:01:59.451Z,22.07
2019-02-02T13:04:27.986Z,22.13
2019-02-02T13:06:57.333Z,22.13
2019-02-02T13:09:24.616Z,22.10
2019-02-02T13:11:56.194Z,22.07
2019-02-02T13:14:25.691Z,22.07
2019-02-02T13:16:55.759Z,22.07
2019-02-02T13:19:25.090Z,22.10
2019-02-02T13:21:53.669Z,22.08
2019-02-02T13:24:24.584Z,22.08
2019-02-02T13:26:53.970Z,22.03
2019-02-02T13:29:23.148Z,21.97
2019-02-02T13:31:52.876Z,22.12
2019-02-02T13:34:23.563Z,22.14
2019-02-02T13:36:51.973Z,22.14
2019-02-02T13:39:22.893Z,22.15
2019-02-02T13:41:51.665Z,22.22
2019-02-02T13:44:20.538Z,22.20
2019-02-02T13:46:50.009Z,22.20
2019-02-02T13:49:19.633Z,22.16
2019-02-02T13:51:49.725Z,22.16
2019-02-02T13:54:19.463Z,22.20
2019-02-02T13:56:49.882Z,22.16
2019-02-02T13:59:18.946Z,22.22
2019-02-02T14:01:47.819Z,22.22
2019-02-02T14:04:16.997Z,22.22
2019-02-02T14:06:47.659Z,22.22
2019-02-02T14:09:15.685Z,22.22
2019-02-02T14:11:43.583Z,22.19
2019-02-02T14:14:13.026Z,21.90
2019-02-02T14:16:43.087Z,21.69
2019-02-02T14:19:13.088Z,21.57
2019-02-02T14:21:43.502Z,21.57
2019-02-02T14:24:14.938Z,21.42
2019-02-02T14:26:44.144Z,21.17
2019-02-02T14:29:14.768Z,21.17
2019-02-02T14:31:43.740Z,20.28
2019-02-02T14:34:13.577Z,20.03
2019-02-02T14:36:42.822Z,20.20
2019-02-02T14:39:13.689Z,20.04
2019-02-02T14:41:42.458Z,20.04
2019-02-02T14:46:58.500Z,19.86
2019-02-02T14:49:27.960Z,19.86
2019-02-02T14:51:56.183Z,20.05
2019-02-02T14:54:25.845Z,19.95
2019-02-02T14:56:59.018Z,19.95
2019-02-02T14:59:29.941Z,19.86
2019-02-02T15:01:58.893Z,19.78
2019-02-02T15:04:30.571Z,19.84
2019-02-02T15:06:59.333Z,19.84
2019-02-02T15:09:29.930Z,19.60
2019-02-02T15:12:00.841Z,19.76
2019-02-02T15:14:33.109Z,19.71
2019-02-02T15:17:03.530Z,19.71
2019-02-02T15:20:51.127Z,19.52
2019-02-02T15:23:24.286Z,19.81
2019-02-02T15:25:54.149Z,19.81
2019-02-02T15:28:26.361Z,19.88
2019-02-02T15:30:56.419Z,19.88
2019-02-02T15:33:37.588Z,19.97
2019-02-02T15:35:58.638Z,19.97
2019-02-02T15:38:44.932Z,19.56
2019-02-02T15:41:23.440Z,19.56
2019-02-02T15:44:04.907Z,19.77
2019-02-02T15:46:49.050Z,19.74
2019-02-02T15:49:23.474Z,19.63
2019-02-02T15:52:00.685Z,19.59
2019-02-02T15:54:36.091Z,19.59
2019-02-02T15:57:17.363Z,19.43
2019-02-02T15:59:57.847Z,19.71
2019-02-02T16:05:12.548Z,19.74
2019-02-02T16:07:58.847Z,19.73
2019-02-02T16:10:58.560Z,19.69
2019-02-02T16:13:38.659Z,19.69
2019-02-02T16:16:30.059Z,19.53
2019-02-02T16:19:04.045Z,19.61
2019-02-02T16:21:46.139Z,19.58
2019-02-02T16:26:31.291Z,19.58
2019-02-02T16:29:01.797Z,19.40
2019-02-02T16:31:32.794Z,19.29
2019-02-02T16:36:11.640Z,19.38
2019-02-02T16:38:42.869Z,19.10
2019-02-02T16:41:11.632Z,19.27
2019-02-02T16:43:43.085Z,19.49
2019-02-02T16:46:13.208Z,19.49
2019-02-02T16:48:46.007Z,19.04
2019-02-02T16:52:37.390Z,19.25
2019-02-02T16:55:10.429Z,19.29
2019-02-02T16:57:41.615Z,19.25
2019-02-02T17:00:22.100Z,19.25
2019-02-02T17:02:52.650Z,19.13
2019-02-02T17:05:23.780Z,19.16
2019-02-02T17:10:41.812Z,19.11
2019-02-02T17:13:11.633Z,19.09
2019-02-02T17:15:47.678Z,19.12
2019-02-02T17:18:16.188Z,19.12
2019-02-02T17:20:46.531Z,19.17
2019-02-02T17:23:16.720Z,19.01
2019-02-02T17:25:49.632Z,19.10
2019-02-02T17:28:19.939Z,19.08
2019-02-02T17:30:50.030Z,19.08
2019-02-02T17:33:21.515Z,19.03
2019-02-02T17:35:49.933Z,18.89
2019-02-02T17:38:21.019Z,18.83
2019-02-02T17:40:56.228Z,18.83
2019-02-02T17:43:27.684Z,18.71
2019-02-02T17:45:57.994Z,18.50
2019-02-02T17:50:42.279Z,18.62
2019-02-02T17:53:12.564Z,18.56
2019-02-02T17:55:42.619Z,18.56
2019-02-02T17:58:13.482Z,18.47
2019-02-02T18:00:50.790Z,18.46
2019-02-02T18:04:59.660Z,18.09
2019-02-02T18:07:29.986Z,18.09
2019-02-02T18:09:59.734Z,18.48
2019-02-02T18:12:29.202Z,18.48
2019-02-02T18:17:29.066Z,18.43
2019-02-02T18:19:58.663Z,18.43
2019-02-02T18:22:30.431Z,18.39
2019-02-02T18:25:03.723Z,18.38
2019-02-02T18:27:33.840Z,18.21
2019-02-02T18:30:11.706Z,18.22
2019-02-02T18:32:43.778Z,18.22
2019-02-02T18:35:15.640Z,18.30
2019-02-02T18:37:46.698Z,18.32
2019-02-02T18:40:16.716Z,18.35
2019-02-02T18:42:48.939Z,18.26
2019-02-02T18:46:55.899Z,18.35
2019-02-02T18:49:26.471Z,18.28
2019-02-02T18:52:37.874Z,18.42
2019-02-02T18:55:11.488Z,18.42
2019-02-02T18:57:46.023Z,18.29
2019-02-02T19:00:22.707Z,18.30
2019-02-02T19:02:57.133Z,18.39
2019-02-02T19:05:29.275Z,18.39
2019-02-02T19:08:53.503Z,18.36
2019-02-02T19:11:27.884Z,18.36
2019-02-02T19:14:01.377Z,18.18
2019-02-02T19:16:34.904Z,18.20
2019-02-02T19:19:08.822Z,18.16
2019-02-02T19:21:43.187Z,18.19
2019-02-02T19:24:15.560Z,18.19
2019-02-02T19:26:46.443Z,18.27
2019-02-02T19:29:21.651Z,18.32
2019-02-02T19:31:55.942Z,18.29
2019-02-02T19:34:30.282Z,18.17
2019-02-02T19:37:02.819Z,18.35
2019-02-02T19:39:36.500Z,18.31
2019-02-02T19:42:10.643Z,18.15
2019-02-02T19:46:37.630Z,18.17
2019-02-02T19:49:11.846Z,18.38
2019-02-02T19:51:46.581Z,18.32
2019-02-02T19:54:21.761Z,18.32
2019-02-02T19:56:57.296Z,18.11
2019-02-02T19:59:36.261Z,18.11
2019-02-02T20:02:11.825Z,18.14
2019-02-02T20:04:46.070Z,18.11
2019-02-02T20:07:21.002Z,18.11
2019-02-02T20:09:57.819Z,18.08
2019-02-02T20:14:57.158Z,18.21
2019-02-02T20:17:30.944Z,18.21
2019-02-02T20:20:06.446Z,17.74
2019-02-02T20:22:44.751Z,17.66
2019-02-02T20:25:21.997Z,17.77
2019-02-02T20:27:59.684Z,17.77
2019-02-02T20:30:36.223Z,17.72
2019-02-02T20:33:12.179Z,17.70
2019-02-02T20:35:48.583Z,17.68
2019-02-02T20:38:22.201Z,17.68
2019-02-02T20:40:56.165Z,17.73
2019-02-02T20:43:32.324Z,17.73
2019-02-02T20:46:06.854Z,17.61
2019-02-02T20:48:40.615Z,17.55
2019-02-02T20:51:14.860Z,17.58
2019-02-02T20:53:52.480Z,17.58
2019-02-02T20:56:26.124Z,17.77
2019-02-02T20:59:01.912Z,17.77
2019-02-02T21:01:36.456Z,17.57
2019-02-02T21:04:10.905Z,17.60
2019-02-02T21:06:44.975Z,17.60
2019-02-02T21:09:17.782Z,17.48
2019-02-02T21:11:56.943Z,17.09
2019-02-02T21:14:28.900Z,17.36
2019-02-02T21:17:02.233Z,17.36
2019-02-02T21:21:59.016Z,17.28
2019-02-02T21:24:33.741Z,17.35
2019-02-02T21:27:42.756Z,17.42
2019-02-02T21:30:23.707Z,17.33
2019-02-02T21:32:53.942Z,17.33
2019-02-02T21:36:49.644Z,17.16
2019-02-02T21:39:22.937Z,17.21
2019-02-02T21:41:55.364Z,17.12
2019-02-02T21:44:29.970Z,17.12
2019-02-02T21:47:04.075Z,17.12
2019-02-02T21:49:36.702Z,17.07
2019-02-02T21:52:11.010Z,17.03
2019-02-02T21:54:44.771Z,17.14
2019-02-02T21:57:15.499Z,17.11
2019-02-02T21:59:48.717Z,17.11
2019-02-02T22:02:22.337Z,17.11
2019-02-02T22:04:54.038Z,17.09
2019-02-02T22:07:26.210Z,17.17
2019-02-02T22:09:56.877Z,17.00
2019-02-02T22:12:28.930Z,17.05
2019-02-02T22:15:25.857Z,17.16
2019-02-02T22:17:58.151Z,17.12
2019-02-02T22:20:28.311Z,17.18
2019-02-02T22:22:59.411Z,17.60
2019-02-02T22:25:33.158Z,18.53
2019-02-02T22:28:03.049Z,18.53
2019-02-02T22:30:36.160Z,18.73
2019-02-02T22:33:07.632Z,18.73
2019-02-02T22:38:23.034Z,18.78
2019-02-02T22:40:53.217Z,18.79
2019-02-02T22:43:23.071Z,18.79
2019-02-02T22:45:52.610Z,19.03
2019-02-02T22:48:21.664Z,19.03
2019-02-02T22:52:27.982Z,19.07
2019-02-02T22:54:58.081Z,19.07
2019-02-02T22:57:26.663Z,19.20
2019-02-02T22:59:56.029Z,19.28
2019-02-02T23:02:26.495Z,19.28
2019-02-02T23:05:24.412Z,19.27
2019-02-02T23:08:44.830Z,19.32
2019-02-02T23:11:35.559Z,19.28
2019-02-02T23:14:51.332Z,19.20
2019-02-02T23:17:20.753Z,19.20
2019-02-02T23:19:49.057Z,19.21
2019-02-02T23:22:18.844Z,19.21
2019-02-02T23:27:10.723Z,19.29
2019-02-02T23:29:39.984Z,19.35
2019-02-02T23:32:08.842Z,19.35
2019-02-02T23:34:37.318Z,19.36
2019-02-02T23:37:09.378Z,19.36
2019-02-02T23:39:39.597Z,19.30
2019-02-02T23:42:09.430Z,19.31
2019-02-02T23:44:40.049Z,19.38
2019-02-02T23:47:11.722Z,19.32
2019-02-02T23:49:41.884Z,19.28
2019-02-02T23:52:13.555Z,19.44
2019-02-02T23:54:43.726Z,19.44
2019-02-02T23:57:15.085Z,19.37
2019-02-02T23:59:46.852Z,19.45
